createdAt,value
2022-11-12T00:02:22.798Z,4.27
2022-11-12T00:07:47.846Z,4.11
2022-11-12T00:13:14.675Z,4.53
2022-11-12T00:18:37.558Z,4.54
2022-11-12T00:24:00.607Z,3.91
2022-11-12T00:29:23.851Z,4.11
2022-11-12T00:34:49.287Z,4.15
2022-11-12T00:40:16.499Z,4.48
2022-11-12T00:45:41.058Z,3.83
2022-11-12T00:51:05.376Z,4.35
2022-11-12T00:56:35.295Z,3.96
2022-11-12T01:01:56.074Z,4.02
2022-11-12T01:07:21.255Z,3.81
2022-11-12T01:12:44.568Z,4.11
2022-11-12T01:18:11.112Z,4.29
2022-11-12T01:23:38.319Z,4.71
2022-11-12T01:29:04.184Z,4.16
2022-11-12T01:34:29.431Z,4.42
2022-11-12T01:39:56.937Z,4.17
2022-11-12T01:45:23.099Z,4.50
2022-11-12T01:50:49.162Z,4.32
2022-11-12T01:56:12.691Z,3.94
2022-11-12T02:01:35.985Z,4.61
2022-11-12T02:06:59.041Z,4.56
2022-11-12T02:12:21.229Z,4.54
2022-11-12T02:17:48.458Z,4.71
2022-11-12T02:23:16.289Z,4.44
2022-11-12T02:28:41.891Z,4.83
2022-11-12T02:34:06.133Z,4.51
2022-11-12T02:39:29.398Z,4.26
2022-11-12T02:44:53.719Z,4.46
2022-11-12T02:50:19.237Z,4.15
2022-11-12T02:55:44.563Z,4.14
2022-11-12T03:01:10.448Z,4.03
2022-11-12T03:06:39.111Z,4.14
2022-11-12T03:12:02.818Z,3.62
2022-11-12T03:17:27.353Z,3.54
2022-11-12T03:22:54.970Z,3.40
2022-11-12T03:28:19.801Z,2.91
2022-11-12T03:33:41.013Z,3.15
2022-11-12T03:39:07.159Z,3.54
2022-11-12T03:44:32.884Z,3.04
2022-11-12T03:50:00.159Z,3.30
2022-11-12T03:55:25.318Z,2.38
2022-11-12T04:00:49.886Z,2.96
2022-11-12T04:06:16.657Z,2.95
2022-11-12T04:11:41.223Z,2.76
2022-11-12T04:17:03.496Z,2.77
2022-11-12T04:22:27.829Z,2.35
2022-11-12T04:27:55.306Z,2.31
2022-11-12T04:33:19.541Z,2.31
2022-11-12T04:38:45.616Z,2.16
2022-11-12T04:44:11.264Z,2.00
2022-11-12T04:49:36.572Z,2.31
2022-11-12T04:54:58.842Z,2.39
2022-11-12T05:00:27.889Z,2.32
2022-11-12T05:05:51.500Z,2.24
2022-11-12T05:11:21.603Z,2.42
2022-11-12T05:16:45.888Z,2.13
2022-11-12T05:22:33.279Z,2.41
2022-11-12T05:27:37.964Z,2.55
2022-11-12T05:33:03.687Z,2.42
2022-11-12T05:38:26.924Z,2.43
2022-11-12T05:43:49.526Z,2.24
2022-11-12T05:49:14.311Z,2.84
2022-11-12T05:54:41.099Z,2.47
2022-11-12T06:00:07.944Z,2.30
2022-11-12T06:05:36.756Z,2.66
2022-11-12T06:10:59.646Z,2.67
2022-11-12T06:16:27.195Z,2.63
2022-11-12T06:21:53.623Z,2.61
2022-11-12T06:27:18.806Z,2.36
2022-11-12T06:32:46.142Z,2.22
2022-11-12T06:38:11.524Z,2.63
2022-11-12T06:43:35.826Z,2.12
2022-11-12T06:49:01.052Z,2.31
2022-11-12T06:54:25.546Z,2.11
2022-11-12T06:59:50.148Z,2.14
2022-11-12T07:05:17.243Z,2.68
2022-11-12T07:10:43.215Z,2.94
2022-11-12T07:16:06.725Z,2.93
2022-11-12T07:21:35.979Z,2.76
2022-11-12T07:26:57.037Z,2.91
2022-11-12T07:32:18.498Z,3.06
2022-11-12T07:37:41.033Z,3.02
2022-11-12T07:43:02.623Z,2.79
2022-11-12T07:48:29.823Z,2.61
2022-11-12T07:53:59.294Z,2.83
2022-11-12T07:59:17.715Z,2.70
2022-11-12T08:04:42.513Z,3.00
2022-11-12T08:10:06.897Z,2.76
2022-11-12T08:15:28.874Z,2.51
2022-11-12T08:20:55.907Z,2.93
2022-11-12T08:26:26.116Z,3.04
2022-11-12T08:31:51.439Z,2.60
2022-11-12T08:37:18.938Z,3.37
2022-11-12T08:42:45.706Z,3.31
2022-11-12T08:48:16.295Z,2.85
2022-11-12T08:53:41.447Z,2.87
2022-11-12T08:59:07.584Z,3.12
2022-11-12T09:04:27.964Z,3.04
2022-11-12T09:09:51.266Z,3.74
2022-11-12T09:15:37.039Z,3.61
2022-11-12T09:20:36.428Z,3.87
2022-11-12T09:26:01.355Z,4.45
2022-11-12T09:31:28.736Z,4.02
2022-11-12T09:36:52.276Z,4.27
2022-11-12T09:42:15.201Z,4.25
2022-11-12T09:47:39.226Z,4.63
2022-11-12T09:53:06.687Z,4.39
2022-11-12T09:58:30.573Z,4.68
2022-11-12T10:03:53.770Z,4.97
2022-11-12T10:09:22.719Z,5.32
2022-11-12T10:14:46.754Z,5.91
2022-11-12T10:20:31.594Z,4.97
2022-11-12T10:25:56.941Z,5.19
2022-11-12T10:31:21.880Z,4.85
2022-11-12T10:36:59.484Z,5.39
2022-11-12T10:42:25.896Z,5.37
2022-11-12T10:47:48.859Z,5.73
2022-11-12T10:53:15.143Z,5.89
2022-11-12T10:58:46.555Z,6.30
2022-11-12T11:04:29.128Z,6.48
2022-11-12T11:09:51.724Z,5.68
2022-11-12T11:15:20.783Z,6.37
2022-11-12T11:20:47.340Z,6.41
2022-11-12T11:26:13.768Z,5.30
2022-11-12T11:31:41.560Z,7.02
2022-11-12T11:37:09.255Z,5.73
2022-11-12T11:42:39.730Z,5.50
2022-11-12T11:48:28.423Z,5.10
2022-11-12T11:53:56.184Z,5.47
2022-11-12T11:59:18.856Z,5.31
2022-11-12T12:04:46.695Z,5.06
2022-11-12T12:10:12.265Z,5.75
2022-11-12T12:15:36.278Z,5.64
2022-11-12T12:21:04.531Z,5.22
2022-11-12T12:26:28.043Z,5.44
2022-11-12T12:31:56.450Z,4.97
2022-11-12T12:37:18.442Z,4.42
2022-11-12T12:42:45.085Z,5.08
2022-11-12T12:48:09.523Z,5.77
2022-11-12T12:53:33.896Z,6.08
2022-11-12T12:58:58.882Z,6.67
2022-11-12T13:04:28.813Z,7.61
2022-11-12T13:10:11.723Z,6.69
2022-11-12T13:16:04.488Z,6.51
2022-11-12T13:21:27.369Z,6.66
2022-11-12T13:26:56.733Z,7.15
2022-11-12T13:32:22.109Z,5.72
2022-11-12T13:37:54.025Z,5.65
2022-11-12T13:43:16.578Z,6.30
2022-11-12T13:48:47.574Z,6.43
2022-11-12T13:54:13.539Z,5.33
2022-11-12T13:59:43.916Z,5.53
2022-11-12T14:05:10.649Z,5.47
2022-11-12T14:10:32.040Z,5.80
2022-11-12T14:15:56.281Z,5.61
2022-11-12T14:21:50.635Z,5.68
2022-11-12T14:27:29.647Z,6.98
2022-11-12T14:32:55.897Z,6.98
2022-11-12T14:38:26.928Z,7.42
2022-11-12T14:44:11.156Z,7.36
2022-11-12T14:49:19.410Z,6.68
2022-11-12T14:54:43.925Z,6.65
2022-11-12T15:00:04.918Z,8.48
2022-11-12T15:05:38.554Z,8.51
2022-11-12T15:11:21.758Z,8.16
2022-11-12T15:16:46.012Z,8.06
2022-11-12T15:22:12.445Z,8.79
2022-11-12T15:27:41.194Z,9.43
2022-11-12T15:33:04.286Z,8.64
2022-11-12T15:38:32.922Z,8.73
2022-11-12T15:43:58.698Z,8.61
2022-11-12T15:49:25.142Z,9.75
2022-11-12T15:54:49.205Z,8.48
2022-11-12T16:00:14.014Z,9.90
2022-11-12T16:05:40.761Z,9.96
2022-11-12T16:11:06.454Z,10.80
2022-11-12T16:16:29.808Z,10.73
2022-11-12T16:21:53.343Z,11.46
2022-11-12T16:27:18.300Z,10.20
2022-11-12T16:32:45.754Z,11.56
2022-11-12T16:38:12.429Z,11.30
2022-11-12T16:43:35.766Z,11.07
2022-11-12T16:48:58.961Z,11.74
2022-11-12T16:54:23.875Z,11.61
2022-11-12T16:59:50.735Z,10.84
2022-11-12T17:05:18.716Z,12.24
2022-11-12T17:10:45.398Z,12.52
2022-11-12T17:16:09.476Z,10.87
2022-11-12T17:21:33.992Z,12.45
2022-11-12T17:27:00.906Z,13.63
2022-11-12T17:32:29.283Z,12.51
2022-11-12T17:37:50.880Z,12.87
2022-11-12T17:43:16.053Z,13.26
2022-11-12T17:48:39.811Z,12.32
2022-11-12T17:54:03.840Z,12.33
2022-11-12T17:59:31.263Z,12.43
2022-11-12T18:04:58.545Z,11.59
2022-11-12T18:10:24.935Z,12.47
2022-11-12T18:15:53.238Z,13.13
2022-11-12T18:21:18.856Z,12.17
2022-11-12T18:26:41.797Z,11.61
2022-11-12T18:32:05.001Z,12.65
2022-11-12T18:37:30.711Z,12.54
2022-11-12T18:42:58.399Z,12.54
2022-11-12T18:48:23.874Z,12.36
2022-11-12T18:53:48.844Z,11.45
2022-11-12T18:59:15.019Z,11.52
2022-11-12T19:04:45.408Z,12.05
2022-11-12T19:10:11.793Z,11.68
2022-11-12T19:15:33.963Z,11.13
2022-11-12T20:32:28.549Z,9.55
2022-11-12T20:38:00.396Z,9.59
2022-11-12T20:43:29.115Z,8.80
2022-11-12T20:48:51.077Z,8.77
2022-11-12T20:54:36.495Z,9.14
2022-11-12T21:00:13.938Z,9.20
2022-11-12T21:05:41.794Z,8.94
2022-11-12T21:11:07.865Z,9.30
2022-11-12T21:16:40.031Z,9.79
2022-11-12T21:28:17.871Z,10.69
2022-11-12T21:34:16.300Z,10.86
2022-11-12T21:40:08.671Z,9.90
2022-11-12T21:46:07.084Z,9.57
2022-11-12T21:51:33.082Z,9.67
2022-11-12T21:57:09.508Z,9.65
2022-11-12T22:02:46.231Z,9.80
2022-11-12T22:08:23.030Z,9.41
2022-11-12T22:13:56.563Z,10.31
2022-11-12T22:19:24.068Z,10.02
2022-11-12T22:31:03.171Z,8.41
2022-11-12T22:36:34.648Z,8.35
2022-11-12T22:42:00.040Z,7.92
2022-11-12T22:47:37.995Z,8.24
2022-11-12T22:53:16.623Z,7.60
2022-11-12T22:58:52.000Z,7.06
2022-11-12T23:04:32.443Z,7.45
2022-11-12T23:10:04.107Z,8.71
2022-11-12T23:15:42.587Z,8.38
2022-11-12T23:27:21.705Z,9.42
2022-11-12T23:33:15.377Z,8.27
2022-11-12T23:38:46.043Z,8.28
2022-11-12T23:44:06.638Z,8.09
2022-11-12T23:49:28.314Z,8.57
2022-11-12T23:54:59.493Z,7.55
